sensor_id;sensor_type;location;lat;lon;timestamp;pressure;altitude;pressure_sealevel;temperature;humidity
39443;BME280;25147;52.142;9.960;2023-05-09T00:00:16;101025.31;;;10.15;80.14
39443;BME280;25147;52.142;9.960;2023-05-09T00:02:44;101010.53;;;10.07;80.34
39443;BME280;25147;52.142;9.960;2023-05-09T00:05:12;101023.63;;;10.07;80.95
39443;BME280;25147;52.142;9.960;2023-05-09T00:07:39;101007.09;;;9.91;80.96
39443;BME280;25147;52.142;9.960;2023-05-09T00:10:06;101028.84;;;10.08;81.41
39443;BME280;25147;52.142;9.960;2023-05-09T00:12:33;101032.34;;;10.06;81.45
39443;BME280;25147;52.142;9.960;2023-05-09T00:15:02;101034.13;;;10.03;81.62
39443;BME280;25147;52.142;9.960;2023-05-09T00:17:30;101006.31;;;9.79;82.13
39443;BME280;25147;52.142;9.960;2023-05-09T00:19:57;101030.66;;;9.95;82.77
39443;BME280;25147;52.142;9.960;2023-05-09T00:22:26;100979.31;;;9.68;82.87
39443;BME280;25147;52.142;9.960;2023-05-09T00:24:53;101019.34;;;9.86;83.13
39443;BME280;25147;52.142;9.960;2023-05-09T00:27:20;101010.66;;;9.76;83.47
39443;BME280;25147;52.142;9.960;2023-05-09T00:29:46;101020.22;;;9.80;83.50
39443;BME280;25147;52.142;9.960;2023-05-09T00:32:14;100975.03;;;9.49;83.70
39443;BME280;25147;52.142;9.960;2023-05-09T00:34:41;100979.38;;;9.45;84.00
39443;BME280;25147;52.142;9.960;2023-05-09T00:37:08;101015.06;;;9.58;84.75
39443;BME280;25147;52.142;9.960;2023-05-09T00:39:34;101013.38;;;9.45;84.68
39443;BME280;25147;52.142;9.960;2023-05-09T00:42:01;100995.09;;;9.34;85.14
39443;BME280;25147;52.142;9.960;2023-05-09T00:44:29;100958.53;;;9.16;85.46
39443;BME280;25147;52.142;9.960;2023-05-09T00:46:55;100994.19;;;9.43;85.59
39443;BME280;25147;52.142;9.960;2023-05-09T00:49:23;100985.50;;;9.35;85.57
39443;BME280;25147;52.142;9.960;2023-05-09T00:51:50;100952.44;;;9.17;85.94
39443;BME280;25147;52.142;9.960;2023-05-09T00:54:18;100983.78;;;9.29;85.93
39443;BME280;25147;52.142;9.960;2023-05-09T00:56:44;100937.69;;;9.02;86.06
39443;BME280;25147;52.142;9.960;2023-05-09T00:59:11;100978.56;;;9.26;86.55
39443;BME280;25147;52.142;9.960;2023-05-09T01:01:38;100986.41;;;9.32;86.61
39443;BME280;25147;52.142;9.960;2023-05-09T01:04:06;100980.31;;;9.30;86.68
39443;BME280;25147;52.142;9.960;2023-05-09T01:06:40;100883.75;;;8.66;86.63
39443;BME280;25147;52.142;9.960;2023-05-09T01:09:19;100968.13;;;9.12;86.84
39443;BME280;25147;52.142;9.960;2023-05-09T01:11:52;100980.28;;;9.26;86.91
39443;BME280;25147;52.142;9.960;2023-05-09T01:14:29;100982.94;;;9.24;87.22
39443;BME280;25147;52.142;9.960;2023-05-09T01:17:07;100967.25;;;9.15;87.00
39443;BME280;25147;52.142;9.960;2023-05-09T01:19:51;100981.16;;;9.23;86.71
39443;BME280;25147;52.142;9.960;2023-05-09T01:22:29;100975.06;;;9.21;86.75
39443;BME280;25147;52.142;9.960;2023-05-09T01:25:18;100973.34;;;9.18;86.38
39443;BME280;25147;52.142;9.960;2023-05-09T01:27:50;100961.13;;;9.17;86.60
39443;BME280;25147;52.142;9.960;2023-05-09T01:30:20;100961.13;;;9.16;86.55
39443;BME280;25147;52.142;9.960;2023-05-09T01:32:50;100920.28;;;8.90;86.66
39443;BME280;25147;52.142;9.960;2023-05-09T01:35:24;100928.97;;;8.98;87.10
39443;BME280;25147;52.142;9.960;2023-05-09T01:37:52;100943.75;;;9.01;87.64
39443;BME280;25147;52.142;9.960;2023-05-09T01:40:20;100955.06;;;9.08;87.88
39443;BME280;25147;52.142;9.960;2023-05-09T01:42:51;100928.97;;;8.89;88.00
39443;BME280;25147;52.142;9.960;2023-05-09T01:45:22;100939.41;;;8.98;88.83
39443;BME280;25147;52.142;9.960;2023-05-09T01:47:55;100950.72;;;9.03;88.34
39443;BME280;25147;52.142;9.960;2023-05-09T01:50:22;100917.69;;;8.84;88.43
39443;BME280;25147;52.142;9.960;2023-05-09T01:52:54;100909.84;;;8.81;88.80
39443;BME280;25147;52.142;9.960;2023-05-09T01:55:22;100942.00;;;9.01;88.78
39443;BME280;25147;52.142;9.960;2023-05-09T01:57:52;100915.94;;;8.84;88.78
39443;BME280;25147;52.142;9.960;2023-05-09T02:00:21;100926.38;;;8.91;89.29
39443;BME280;25147;52.142;9.960;2023-05-09T02:02:49;100910.72;;;8.81;89.41
39443;BME280;25147;52.142;9.960;2023-05-09T02:05:17;100950.72;;;8.99;89.30
39443;BME280;25147;52.142;9.960;2023-05-09T02:07:46;100929.84;;;8.91;89.38
39443;BME280;25147;52.142;9.960;2023-05-09T02:10:14;100875.94;;;8.59;89.62
39443;BME280;25147;52.142;9.960;2023-05-09T02:12:42;100928.13;;;8.86;90.04
39443;BME280;25147;52.142;9.960;2023-05-09T02:15:09;100923.75;;;8.92;89.98
39443;BME280;25147;52.142;9.960;2023-05-09T02:17:37;100911.56;;;8.79;89.87
39443;BME280;25147;52.142;9.960;2023-05-09T02:20:06;100888.09;;;8.73;89.97
39443;BME280;25147;52.142;9.960;2023-05-09T02:22:34;100920.25;;;8.87;90.32
39443;BME280;25147;52.142;9.960;2023-05-09T02:25:01;100896.81;;;8.72;90.72
39443;BME280;25147;52.142;9.960;2023-05-09T02:27:29;100911.59;;;8.80;90.67
39443;BME280;25147;52.142;9.960;2023-05-09T02:29:58;100900.25;;;8.77;91.03
39443;BME280;25147;52.142;9.960;2023-05-09T02:32:30;100923.75;;;8.91;91.13
39443;BME280;25147;52.142;9.960;2023-05-09T02:35:00;100895.94;;;8.65;91.23
39443;BME280;25147;52.142;9.960;2023-05-09T02:37:32;100930.72;;;8.90;90.99
39443;BME280;25147;52.142;9.960;2023-05-09T02:39:59;100927.25;;;8.88;90.68
39443;BME280;25147;52.142;9.960;2023-05-09T02:42:26;100907.22;;;8.76;90.57
39443;BME280;25147;52.142;9.960;2023-05-09T02:44:55;100911.59;;;8.70;90.82
39443;BME280;25147;52.142;9.960;2023-05-09T02:47:22;100902.91;;;8.68;90.92
39443;BME280;25147;52.142;9.960;2023-05-09T02:49:48;100920.28;;;8.78;90.34
39443;BME280;25147;52.142;9.960;2023-05-09T02:52:16;100902.03;;;8.64;89.87
39443;BME280;25147;52.142;9.960;2023-05-09T02:54:44;100895.94;;;8.62;89.64
39443;BME280;25147;52.142;9.960;2023-05-09T02:57:10;100883.78;;;8.55;90.08
39443;BME280;25147;52.142;9.960;2023-05-09T02:59:37;100882.03;;;8.54;89.83
39443;BME280;25147;52.142;9.960;2023-05-09T03:02:04;100847.19;;;8.30;89.76
39443;BME280;25147;52.142;9.960;2023-05-09T03:04:30;100908.13;;;8.63;89.91
39443;BME280;25147;52.142;9.960;2023-05-09T03:07:00;100835.03;;;8.21;90.28
39443;BME280;25147;52.142;9.960;2023-05-09T03:09:28;100903.78;;;8.59;90.50
39443;BME280;25147;52.142;9.960;2023-05-09T03:11:55;100895.06;;;8.49;90.57
39443;BME280;25147;52.142;9.960;2023-05-09T03:14:22;100855.91;;;8.29;90.68
39443;BME280;25147;52.142;9.960;2023-05-09T03:16:48;100845.47;;;8.15;90.73
39443;BME280;25147;52.142;9.960;2023-05-09T03:19:15;100881.13;;;8.27;90.68
39443;BME280;25147;52.142;9.960;2023-05-09T03:21:42;100870.69;;;8.29;91.18
39443;BME280;25147;52.142;9.960;2023-05-09T03:24:09;100849.78;;;8.12;91.44
39443;BME280;25147;52.142;9.960;2023-05-09T03:26:37;100844.56;;;8.12;91.91
39443;BME280;25147;52.142;9.960;2023-05-09T03:29:04;100894.16;;;8.36;91.92
39443;BME280;25147;52.142;9.960;2023-05-09T03:31:31;100867.19;;;8.28;92.26
39443;BME280;25147;52.142;9.960;2023-05-09T03:33:58;100703.75;;;7.24;92.26
39443;BME280;25147;52.142;9.960;2023-05-09T03:36:25;100868.94;;;8.20;92.76
39443;BME280;25147;52.142;9.960;2023-05-09T03:38:51;100860.22;;;8.18;92.94
39443;BME280;25147;52.142;9.960;2023-05-09T03:41:18;100868.94;;;8.23;93.26
39443;BME280;25147;52.142;9.960;2023-05-09T03:43:46;100896.78;;;8.35;93.33
39443;BME280;25147;52.142;9.960;2023-05-09T03:46:13;100865.44;;;8.24;93.60
39443;BME280;25147;52.142;9.960;2023-05-09T03:48:40;100865.47;;;8.21;93.62
39443;BME280;25147;52.142;9.960;2023-05-09T03:51:07;100887.19;;;8.40;93.49
39443;BME280;25147;52.142;9.960;2023-05-09T03:53:34;100874.19;;;8.41;93.54
39443;BME280;25147;52.142;9.960;2023-05-09T03:56:00;100851.56;;;8.27;93.74
39443;BME280;25147;52.142;9.960;2023-05-09T03:58:27;100825.47;;;8.14;93.84
39443;BME280;25147;52.142;9.960;2023-05-09T04:00:55;100842.88;;;8.31;93.96
39443;BME280;25147;52.142;9.960;2023-05-09T04:03:22;100875.94;;;8.53;93.85
39443;BME280;25147;52.142;9.960;2023-05-09T04:05:49;100835.91;;;8.39;93.33
39443;BME280;25147;52.142;9.960;2023-05-09T04:08:16;100867.22;;;8.60;93.08
39443;BME280;25147;52.142;9.960;2023-05-09T04:10:43;100869.84;;;8.63;92.96
39443;BME280;25147;52.142;9.960;2023-05-09T04:13:10;100837.66;;;8.52;92.43
39443;BME280;25147;52.142;9.960;2023-05-09T04:15:36;100810.69;;;8.39;92.57
39443;BME280;25147;52.142;9.960;2023-05-09T04:18:05;100834.19;;;8.53;92.47
39443;BME280;25147;52.142;9.960;2023-05-09T04:20:32;100783.75;;;8.33;92.50
39443;BME280;25147;52.142;9.960;2023-05-09T04:22:59;100828.06;;;8.68;92.10
39443;BME280;25147;52.142;9.960;2023-05-09T04:25:26;100836.75;;;8.82;91.66
39443;BME280;25147;52.142;9.960;2023-05-09T04:27:53;100857.56;;;9.07;90.75
39443;BME280;25147;52.142;9.960;2023-05-09T04:30:21;100848.84;;;9.13;90.59
39443;BME280;25147;52.142;9.960;2023-05-09T04:32:48;100845.31;;;9.32;89.83
39443;BME280;25147;52.142;9.960;2023-05-09T04:35:16;100822.63;;;9.36;89.19
39443;BME280;25147;52.142;9.960;2023-05-09T04:37:43;100840.78;;;9.63;88.57
39443;BME280;25147;52.142;9.960;2023-05-09T04:40:10;100812.00;;;9.67;87.54
39443;BME280;25147;52.142;9.960;2023-05-09T04:42:39;100826.66;;;9.91;85.79
39443;BME280;25147;52.142;9.960;2023-05-09T04:45:07;100773.59;;;9.76;84.14
39443;BME280;25147;52.142;9.960;2023-05-09T04:47:35;100807.34;;;10.12;82.28
39443;BME280;25147;52.142;9.960;2023-05-09T04:50:03;100843.75;;;10.39;81.53
39443;BME280;25147;52.142;9.960;2023-05-09T04:52:31;100815.94;;;10.24;81.21
39443;BME280;25147;52.142;9.960;2023-05-09T04:54:58;100802.00;;;10.21;81.65
39443;BME280;25147;52.142;9.960;2023-05-09T04:57:25;100821.16;;;10.31;81.61
39443;BME280;25147;52.142;9.960;2023-05-09T04:59:52;100835.97;;;10.32;82.06
39443;BME280;25147;52.142;9.960;2023-05-09T05:02:19;100829.81;;;10.39;82.26
39443;BME280;25147;52.142;9.960;2023-05-09T05:04:46;100833.28;;;10.39;82.17
39443;BME280;25147;52.142;9.960;2023-05-09T05:07:13;100828.91;;;10.43;82.27
39443;BME280;25147;52.142;9.960;2023-05-09T05:09:41;100826.22;;;10.46;82.34
39443;BME280;25147;52.142;9.960;2023-05-09T05:12:08;100839.31;;;10.51;82.24
39443;BME280;25147;52.142;9.960;2023-05-09T05:14:34;100814.03;;;10.47;82.56
39443;BME280;25147;52.142;9.960;2023-05-09T05:17:02;100813.13;;;10.51;82.57
39443;BME280;25147;52.142;9.960;2023-05-09T05:19:29;100829.63;;;10.60;82.39
39443;BME280;25147;52.142;9.960;2023-05-09T05:21:56;100815.69;;;10.55;82.03
39443;BME280;25147;52.142;9.960;2023-05-09T05:24:23;100825.19;;;10.67;82.08
39443;BME280;25147;52.142;9.960;2023-05-09T05:26:51;100853.94;;;10.70;82.03
39443;BME280;25147;52.142;9.960;2023-05-09T05:29:17;100824.31;;;10.67;82.23
39443;BME280;25147;52.142;9.960;2023-05-09T05:31:44;100807.84;;;10.55;82.64
39443;BME280;25147;52.142;9.960;2023-05-09T05:34:11;100834.66;;;10.79;82.72
39443;BME280;25147;52.142;9.960;2023-05-09T05:36:39;100791.22;;;10.59;83.11
39443;BME280;25147;52.142;9.960;2023-05-09T05:39:05;100835.41;;;10.89;82.03
39443;BME280;25147;52.142;9.960;2023-05-09T05:41:33;100791.88;;;10.78;80.97
39443;BME280;25147;52.142;9.960;2023-05-09T05:44:01;100757.09;;;10.69;79.11
39443;BME280;25147;52.142;9.960;2023-05-09T05:46:29;100827.16;;;11.24;78.84
39443;BME280;25147;52.142;9.960;2023-05-09T05:48:56;100642.28;;;10.33;77.97
39443;BME280;25147;52.142;9.960;2023-05-09T05:51:23;100661.31;;;10.49;76.83
39443;BME280;25147;52.142;9.960;2023-05-09T05:53:50;100749.47;;;11.21;75.78
39443;BME280;25147;52.142;9.960;2023-05-09T05:56:17;100787.38;;;11.58;74.80
39443;BME280;25147;52.142;9.960;2023-05-09T05:58:43;100805.44;;;11.78;74.54
39443;BME280;25147;52.142;9.960;2023-05-09T06:01:12;100804.50;;;11.83;74.21
39443;BME280;25147;52.142;9.960;2023-05-09T06:03:39;100812.19;;;11.97;74.45
39443;BME280;25147;52.142;9.960;2023-05-09T06:06:06;100798.03;;;12.06;73.52
39443;BME280;25147;52.142;9.960;2023-05-09T06:08:33;100804.84;;;12.19;72.64
39443;BME280;25147;52.142;9.960;2023-05-09T06:11:00;100758.69;;;12.06;72.54
39443;BME280;25147;52.142;9.960;2023-05-09T06:13:27;100777.56;;;12.27;72.09
39443;BME280;25147;52.142;9.960;2023-05-09T06:15:54;100795.50;;;12.51;71.05
39443;BME280;25147;52.142;9.960;2023-05-09T06:18:23;100781.53;;;12.51;70.95
39443;BME280;25147;52.142;9.960;2023-05-09T06:20:50;100778.78;;;12.57;69.43
39443;BME280;25147;52.142;9.960;2023-05-09T06:23:17;100758.63;;;12.59;68.77
39443;BME280;25147;52.142;9.960;2023-05-09T06:25:46;100795.78;;;12.84;69.00
39443;BME280;25147;52.142;9.960;2023-05-09T06:28:15;100777.47;;;12.81;68.31
39443;BME280;25147;52.142;9.960;2023-05-09T06:30:42;100775.53;;;12.91;68.71
39443;BME280;25147;52.142;9.960;2023-05-09T06:33:12;100787.50;;;13.04;68.56
39443;BME280;25147;52.142;9.960;2023-05-09T06:35:43;100699.81;;;12.66;68.08
39443;BME280;25147;52.142;9.960;2023-05-09T06:38:10;100775.75;;;13.22;68.31
39443;BME280;25147;52.142;9.960;2023-05-09T06:40:37;100775.50;;;13.34;68.21
39443;BME280;25147;52.142;9.960;2023-05-09T06:43:03;100773.41;;;13.50;67.59
39443;BME280;25147;52.142;9.960;2023-05-09T06:45:32;100760.16;;;13.53;67.24
39443;BME280;25147;52.142;9.960;2023-05-09T06:48:00;100706.00;;;13.44;67.06
39443;BME280;25147;52.142;9.960;2023-05-09T06:50:27;100746.31;;;13.84;65.89
39443;BME280;25147;52.142;9.960;2023-05-09T06:52:57;100761.41;;;14.12;66.21
39443;BME280;25147;52.142;9.960;2023-05-09T06:55:24;100705.72;;;13.93;65.15
39443;BME280;25147;52.142;9.960;2023-05-09T06:57:51;100619.25;;;13.43;64.66
39443;BME280;25147;52.142;9.960;2023-05-09T07:00:20;100419.97;;;12.51;63.68
39443;BME280;25147;52.142;9.960;2023-05-09T07:02:47;100618.44;;;13.75;63.19
39443;BME280;25147;52.142;9.960;2023-05-09T07:05:14;100701.47;;;14.21;62.78
39443;BME280;25147;52.142;9.960;2023-05-09T07:07:41;100668.06;;;14.23;62.70
39443;BME280;25147;52.142;9.960;2023-05-09T07:10:10;100523.44;;;13.53;62.48
39443;BME280;25147;52.142;9.960;2023-05-09T07:12:37;100590.53;;;14.02;62.09
39443;BME280;25147;52.142;9.960;2023-05-09T07:15:05;100712.06;;;14.84;61.84
39443;BME280;25147;52.142;9.960;2023-05-09T07:17:32;100685.00;;;14.77;61.69
39443;BME280;25147;52.142;9.960;2023-05-09T07:20:00;100696.28;;;14.82;61.93
39443;BME280;25147;52.142;9.960;2023-05-09T07:22:28;100723.78;;;15.03;61.78
39443;BME280;25147;52.142;9.960;2023-05-09T07:24:55;100660.72;;;14.68;61.96
39443;BME280;25147;52.142;9.960;2023-05-09T07:27:24;100697.81;;;14.90;61.76
39443;BME280;25147;52.142;9.960;2023-05-09T07:29:51;100664.16;;;14.70;62.12
39443;BME280;25147;52.142;9.960;2023-05-09T07:32:18;100621.50;;;14.55;62.05
39443;BME280;25147;52.142;9.960;2023-05-09T07:34:46;100706.34;;;14.98;62.29
39443;BME280;25147;52.142;9.960;2023-05-09T07:37:13;100701.78;;;15.04;62.59
39443;BME280;25147;52.142;9.960;2023-05-09T07:39:40;100684.44;;;14.96;62.46
39443;BME280;25147;52.142;9.960;2023-05-09T07:42:07;100644.78;;;14.71;62.93
39443;BME280;25147;52.142;9.960;2023-05-09T07:44:35;100631.66;;;14.69;63.19
39443;BME280;25147;52.142;9.960;2023-05-09T07:47:02;100511.19;;;13.83;63.27
39443;BME280;25147;52.142;9.960;2023-05-09T07:49:30;100349.44;;;13.04;63.47
39443;BME280;25147;52.142;9.960;2023-05-09T07:52:02;100362.66;;;13.01;63.96
39443;BME280;25147;52.142;9.960;2023-05-09T07:54:34;100477.38;;;14.01;63.90
39443;BME280;25147;52.142;9.960;2023-05-09T07:57:01;100678.69;;;15.13;63.93
39443;BME280;25147;52.142;9.960;2023-05-09T07:59:29;100345.25;;;13.29;64.52
39443;BME280;25147;52.142;9.960;2023-05-09T08:01:58;100312.00;;;13.29;64.55
39443;BME280;25147;52.142;9.960;2023-05-09T08:04:25;100599.16;;;14.98;64.82
39443;BME280;25147;52.142;9.960;2023-05-09T08:06:53;100649.53;;;15.44;64.50
39443;BME280;25147;52.142;9.960;2023-05-09T08:09:22;100423.31;;;14.19;63.87
39443;BME280;25147;52.142;9.960;2023-05-09T08:11:49;100325.75;;;13.67;64.19
39443;BME280;25147;52.142;9.960;2023-05-09T08:14:16;100479.00;;;14.63;64.18
39443;BME280;25147;52.142;9.960;2023-05-09T08:16:44;100561.47;;;15.21;64.25
39443;BME280;25147;52.142;9.960;2023-05-09T08:19:14;100429.19;;;14.55;63.32
39443;BME280;25147;52.142;9.960;2023-05-09T08:21:41;100651.56;;;15.89;63.10
39443;BME280;25147;52.142;9.960;2023-05-09T08:24:10;100427.66;;;14.48;63.39
39443;BME280;25147;52.142;9.960;2023-05-09T08:26:37;100621.47;;;15.95;63.13
39443;BME280;25147;52.142;9.960;2023-05-09T08:29:07;100459.94;;;15.08;62.58
39443;BME280;25147;52.142;9.960;2023-05-09T08:31:34;100605.19;;;16.07;61.81
39443;BME280;25147;52.142;9.960;2023-05-09T08:34:01;100432.84;;;15.04;61.07
39443;BME280;25147;52.142;9.960;2023-05-09T08:36:30;100237.63;;;14.07;60.41
39443;BME280;25147;52.142;9.960;2023-05-09T08:38:59;100604.09;;;16.36;60.42
39443;BME280;25147;52.142;9.960;2023-05-09T08:41:26;100653.81;;;16.50;60.13
39443;BME280;25147;52.142;9.960;2023-05-09T08:43:55;100597.41;;;16.51;59.91
39443;BME280;25147;52.142;9.960;2023-05-09T08:46:36;100374.13;;;15.24;59.77
39443;BME280;25147;52.142;9.960;2023-05-09T08:49:04;100589.09;;;16.60;59.44
39443;BME280;25147;52.142;9.960;2023-05-09T08:51:34;100401.03;;;15.58;59.06
39443;BME280;25147;52.142;9.960;2023-05-09T08:54:03;100376.75;;;15.48;58.35
39443;BME280;25147;52.142;9.960;2023-05-09T08:56:31;100277.94;;;14.86;58.18
39443;BME280;25147;52.142;9.960;2023-05-09T08:59:00;100317.84;;;15.24;57.52
39443;BME280;25147;52.142;9.960;2023-05-09T09:01:27;100409.91;;;15.80;57.01
39443;BME280;25147;52.142;9.960;2023-05-09T09:03:55;100451.22;;;16.27;56.41
39443;BME280;25147;52.142;9.960;2023-05-09T09:06:22;100602.84;;;17.16;56.38
39443;BME280;25147;52.142;9.960;2023-05-09T09:08:54;100309.34;;;15.63;56.75
39443;BME280;25147;52.142;9.960;2023-05-09T09:11:21;100275.94;;;15.40;56.26
39443;BME280;25147;52.142;9.960;2023-05-09T09:13:50;100379.34;;;16.19;55.27
39443;BME280;25147;52.142;9.960;2023-05-09T09:16:20;100240.50;;;15.47;54.48
39443;BME280;25147;52.142;9.960;2023-05-09T09:18:50;100459.16;;;16.93;53.11
39443;BME280;25147;52.142;9.960;2023-05-09T09:21:19;100461.28;;;17.05;52.55
39443;BME280;25147;52.142;9.960;2023-05-09T09:23:46;100574.63;;;17.78;51.77
39443;BME280;25147;52.142;9.960;2023-05-09T09:26:25;100319.41;;;16.21;51.48
39443;BME280;25147;52.142;9.960;2023-05-09T09:28:56;100324.44;;;16.48;53.09
39443;BME280;25147;52.142;9.960;2023-05-09T09:31:30;100360.72;;;16.64;53.25
39443;BME280;25147;52.142;9.960;2023-05-09T09:34:01;100204.13;;;15.77;54.05
39443;BME280;25147;52.142;9.960;2023-05-09T09:36:29;100525.19;;;17.78;54.00
39443;BME280;25147;52.142;9.960;2023-05-09T09:39:02;100303.56;;;16.41;52.14
39443;BME280;25147;52.142;9.960;2023-05-09T09:41:32;100514.44;;;17.83;51.63
39443;BME280;25147;52.142;9.960;2023-05-09T09:44:05;100195.56;;;15.93;51.48
39443;BME280;25147;52.142;9.960;2023-05-09T09:46:43;100263.28;;;16.57;52.16
39443;BME280;25147;52.142;9.960;2023-05-09T09:49:12;100563.94;;;18.20;52.37
39443;BME280;25147;52.142;9.960;2023-05-09T09:51:39;100209.91;;;16.28;52.73
39443;BME280;25147;52.142;9.960;2023-05-09T09:54:07;100490.09;;;18.13;53.14
39443;BME280;25147;52.142;9.960;2023-05-09T09:56:41;100462.53;;;17.98;52.09
39443;BME280;25147;52.142;9.960;2023-05-09T09:59:10;100519.69;;;18.41;51.94
39443;BME280;25147;52.142;9.960;2023-05-09T10:01:55;100390.13;;;17.78;50.05
39443;BME280;25147;52.142;9.960;2023-05-09T10:04:27;100369.28;;;17.71;50.40
39443;BME280;25147;52.142;9.960;2023-05-09T10:06:56;100220.34;;;16.91;50.04
39443;BME280;25147;52.142;9.960;2023-05-09T10:09:33;100327.31;;;17.63;50.05
39443;BME280;25147;52.142;9.960;2023-05-09T10:12:06;100527.41;;;18.84;50.46
39443;BME280;25147;52.142;9.960;2023-05-09T10:14:35;100367.59;;;18.08;50.97
39443;BME280;25147;52.142;9.960;2023-05-09T10:17:03;100362.16;;;17.92;50.40
39443;BME280;25147;52.142;9.960;2023-05-09T10:19:31;100494.53;;;18.87;49.84
39443;BME280;25147;52.142;9.960;2023-05-09T10:22:02;100414.22;;;18.48;49.61
39443;BME280;25147;52.142;9.960;2023-05-09T10:24:41;100469.47;;;18.75;49.68
39443;BME280;25147;52.142;9.960;2023-05-09T10:27:21;100456.41;;;18.70;49.81
39443;BME280;25147;52.142;9.960;2023-05-09T10:30:02;100493.88;;;19.00;49.94
39443;BME280;25147;52.142;9.960;2023-05-09T10:32:42;100181.25;;;17.17;50.34
39443;BME280;25147;52.142;9.960;2023-05-09T10:35:29;100297.03;;;18.05;50.39
39443;BME280;25147;52.142;9.960;2023-05-09T10:38:00;100156.44;;;17.19;50.24
39443;BME280;25147;52.142;9.960;2023-05-09T10:40:30;100269.63;;;18.06;50.19
39443;BME280;25147;52.142;9.960;2023-05-09T10:42:59;100323.44;;;18.43;48.75
39443;BME280;25147;52.142;9.960;2023-05-09T10:45:27;100273.84;;;18.10;48.63
39443;BME280;25147;52.142;9.960;2023-05-09T10:48:04;100264.03;;;18.30;49.82
39443;BME280;25147;52.142;9.960;2023-05-09T10:50:34;100280.00;;;18.45;49.53
39443;BME280;25147;52.142;9.960;2023-05-09T10:53:06;100435.00;;;19.44;47.73
39443;BME280;25147;52.142;9.960;2023-05-09T10:55:51;100257.63;;;18.34;48.24
39443;BME280;25147;52.142;9.960;2023-05-09T10:58:41;100312.13;;;18.92;48.79
39443;BME280;25147;52.142;9.960;2023-05-09T11:01:11;100351.41;;;19.18;48.33
39443;BME280;25147;52.142;9.960;2023-05-09T11:04:00;100162.72;;;18.24;48.13
39443;BME280;25147;52.142;9.960;2023-05-09T11:06:50;100397.72;;;19.79;46.54
39443;BME280;25147;52.142;9.960;2023-05-09T11:09:22;100352.50;;;19.48;46.94
39443;BME280;25147;52.142;9.960;2023-05-09T11:11:53;100109.50;;;18.12;47.23
39443;BME280;25147;52.142;9.960;2023-05-09T11:14:38;100414.13;;;20.03;45.86
39443;BME280;25147;52.142;9.960;2023-05-09T11:17:11;100401.25;;;20.12;45.88
39443;BME280;25147;52.142;9.960;2023-05-09T11:19:59;100138.00;;;18.57;46.20
39443;BME280;25147;52.142;9.960;2023-05-09T11:22:29;100094.56;;;18.44;45.92
39443;BME280;25147;52.142;9.960;2023-05-09T11:25:03;100117.13;;;18.51;46.19
39443;BME280;25147;52.142;9.960;2023-05-09T11:27:44;100383.00;;;20.21;45.66
39443;BME280;25147;52.142;9.960;2023-05-09T11:30:16;100398.69;;;20.26;46.42
39443;BME280;25147;52.142;9.960;2023-05-09T11:32:52;100046.56;;;18.33;46.08
39443;BME280;25147;52.142;9.960;2023-05-09T11:35:29;100180.28;;;19.10;45.73
39443;BME280;25147;52.142;9.960;2023-05-09T11:38:05;100006.78;;;18.17;45.00
39443;BME280;25147;52.142;9.960;2023-05-09T11:40:36;100167.09;;;19.24;46.08
39443;BME280;25147;52.142;9.960;2023-05-09T11:43:07;100045.22;;;18.57;45.99
39443;BME280;25147;52.142;9.960;2023-05-09T11:45:52;100066.53;;;18.88;47.63
39443;BME280;25147;52.142;9.960;2023-05-09T11:48:42;100171.16;;;19.45;47.64
39443;BME280;25147;52.142;9.960;2023-05-09T11:51:37;100050.13;;;18.81;47.83
39443;BME280;25147;52.142;9.960;2023-05-09T11:54:16;100136.28;;;19.52;46.17
39443;BME280;25147;52.142;9.960;2023-05-09T11:56:45;100313.19;;;20.48;46.50
39443;BME280;25147;52.142;9.960;2023-05-09T11:59:20;100025.63;;;18.92;47.33
39443;BME280;25147;52.142;9.960;2023-05-09T12:01:56;100213.03;;;20.18;47.57
39443;BME280;25147;52.142;9.960;2023-05-09T12:04:23;100200.78;;;20.16;47.54
39443;BME280;25147;52.142;9.960;2023-05-09T12:06:53;100177.78;;;20.15;47.30
39443;BME280;25147;52.142;9.960;2023-05-09T12:09:20;100223.25;;;20.55;47.23
39443;BME280;25147;52.142;9.960;2023-05-09T12:11:47;100226.13;;;20.52;46.95
39443;BME280;25147;52.142;9.960;2023-05-09T12:14:25;100256.56;;;20.76;46.97
39443;BME280;25147;52.142;9.960;2023-05-09T12:16:52;100254.38;;;20.83;47.41
39443;BME280;25147;52.142;9.960;2023-05-09T12:19:23;100320.53;;;21.32;47.18
39443;BME280;25147;52.142;9.960;2023-05-09T12:21:58;99991.69;;;19.43;47.65
39443;BME280;25147;52.142;9.960;2023-05-09T12:24:34;100002.69;;;19.51;46.48
39443;BME280;25147;52.142;9.960;2023-05-09T12:27:10;100313.59;;;21.58;46.30
39443;BME280;25147;52.142;9.960;2023-05-09T12:29:37;100025.56;;;19.68;45.79
39443;BME280;25147;52.142;9.960;2023-05-09T12:32:07;100224.50;;;20.92;45.93
39443;BME280;25147;52.142;9.960;2023-05-09T12:34:35;100105.09;;;20.44;46.17
39443;BME280;25147;52.142;9.960;2023-05-09T12:37:17;99995.41;;;19.69;45.93
39443;BME280;25147;52.142;9.960;2023-05-09T12:40:02;100164.25;;;21.06;45.62
39443;BME280;25147;52.142;9.960;2023-05-09T12:42:30;99947.59;;;19.69;45.23
39443;BME280;25147;52.142;9.960;2023-05-09T12:44:58;100180.75;;;21.25;44.63
39443;BME280;25147;52.142;9.960;2023-05-09T12:47:26;100239.44;;;21.65;44.83
39443;BME280;25147;52.142;9.960;2023-05-09T12:50:03;100320.28;;;21.93;45.22
39443;BME280;25147;52.142;9.960;2023-05-09T12:52:49;100081.34;;;20.56;44.86
39443;BME280;25147;52.142;9.960;2023-05-09T12:55:18;100077.94;;;20.54;44.58
39443;BME280;25147;52.142;9.960;2023-05-09T12:57:56;100015.00;;;20.11;45.77
39443;BME280;25147;52.142;9.960;2023-05-09T13:00:27;99967.19;;;19.82;44.91
39443;BME280;25147;52.142;9.960;2023-05-09T13:02:54;100276.66;;;21.67;46.21
39443;BME280;25147;52.142;9.960;2023-05-09T13:05:25;100236.53;;;21.41;46.56